createdAt,value
2023-11-30T00:00:27.398Z,2.85
2023-11-30T00:02:54.022Z,3.75
2023-11-30T00:05:23.241Z,3.92
2023-11-30T00:07:50.212Z,3.90
2023-11-30T00:10:16.917Z,4.03
2023-11-30T00:12:43.560Z,3.90
2023-11-30T00:15:10.576Z,4.50
2023-11-30T00:17:37.202Z,4.50
2023-11-30T00:20:04.593Z,3.67
2023-11-30T00:22:31.173Z,3.72
2023-11-30T00:24:57.674Z,5.03
2023-11-30T00:27:24.507Z,3.10
2023-11-30T00:29:51.123Z,4.40
2023-11-30T00:32:17.710Z,4.10
2023-11-30T00:34:44.324Z,4.72
2023-11-30T00:37:10.856Z,4.93
2023-11-30T00:39:37.386Z,4.40
2023-11-30T00:42:04.334Z,3.60
2023-11-30T00:44:30.920Z,3.73
2023-11-30T00:46:57.468Z,4.00
2023-11-30T00:49:23.988Z,3.92
2023-11-30T00:51:50.600Z,3.47
2023-11-30T00:54:17.291Z,3.83
2023-11-30T00:56:43.948Z,4.07
2023-11-30T00:59:10.501Z,3.50
2023-11-30T01:01:37.176Z,4.05
2023-11-30T01:04:03.859Z,4.32
2023-11-30T01:06:31.467Z,3.00
2023-11-30T01:08:58.184Z,4.00
2023-11-30T01:11:24.725Z,4.40
2023-11-30T01:13:51.207Z,4.28
2023-11-30T01:16:17.780Z,4.38
2023-11-30T01:18:44.443Z,3.88
2023-11-30T01:21:11.121Z,4.00
2023-11-30T01:23:37.659Z,4.90
2023-11-30T01:26:04.517Z,4.35
2023-11-30T01:28:31.135Z,4.20
2023-11-30T01:30:57.743Z,4.30
2023-11-30T01:33:24.452Z,3.67
2023-11-30T01:35:51.332Z,4.63
2023-11-30T01:38:17.946Z,3.88
2023-11-30T01:40:44.597Z,4.30
2023-11-30T01:43:11.970Z,4.13
2023-11-30T01:45:38.951Z,4.33
2023-11-30T01:48:05.780Z,4.40
2023-11-30T01:50:32.494Z,4.60
2023-11-30T01:52:59.115Z,4.53
2023-11-30T01:55:25.824Z,3.72
2023-11-30T01:57:52.574Z,4.27
2023-11-30T02:00:20.342Z,3.65
2023-11-30T02:02:47.808Z,4.40
2023-11-30T02:05:14.348Z,3.60
2023-11-30T02:07:40.859Z,4.25
2023-11-30T02:10:07.822Z,4.17
2023-11-30T02:12:34.494Z,4.22
2023-11-30T02:15:01.184Z,3.75
2023-11-30T02:17:27.815Z,4.18
2023-11-30T02:19:54.308Z,4.60
2023-11-30T02:22:20.825Z,4.67
2023-11-30T02:24:47.711Z,4.38
2023-11-30T02:27:14.282Z,5.05
2023-11-30T02:29:40.820Z,3.60
2023-11-30T02:32:07.603Z,4.30
2023-11-30T02:34:34.349Z,4.10
2023-11-30T02:37:00.865Z,4.28
2023-11-30T02:39:27.642Z,4.40
2023-11-30T02:41:54.329Z,5.03
2023-11-30T02:44:20.879Z,4.47
2023-11-30T02:46:47.413Z,4.53
2023-11-30T02:49:13.970Z,4.93
2023-11-30T02:51:40.476Z,4.38
2023-11-30T02:54:07.017Z,4.72
2023-11-30T02:56:40.539Z,5.22
2023-11-30T02:59:07.302Z,4.37
2023-11-30T03:01:34.004Z,4.75
2023-11-30T03:04:00.712Z,4.57
2023-11-30T03:06:27.313Z,4.53
2023-11-30T03:08:53.859Z,4.95
2023-11-30T03:11:20.419Z,5.03
2023-11-30T03:13:46.929Z,4.53
2023-11-30T03:16:13.506Z,4.82
2023-11-30T03:18:41.701Z,4.13
2023-11-30T03:21:21.667Z,4.55
2023-11-30T03:23:48.261Z,3.83
2023-11-30T03:26:18.143Z,4.22
2023-11-30T03:28:45.086Z,4.40
2023-11-30T03:31:11.572Z,5.00
2023-11-30T03:33:38.090Z,4.85
2023-11-30T03:36:04.838Z,4.90
2023-11-30T03:38:31.670Z,4.57
2023-11-30T03:40:58.252Z,5.35
2023-11-30T03:43:24.721Z,4.18
2023-11-30T03:45:51.281Z,4.60
2023-11-30T03:48:17.894Z,5.20
2023-11-30T03:50:44.619Z,4.35
2023-11-30T03:53:11.126Z,4.40
2023-11-30T03:55:37.601Z,5.07
2023-11-30T03:58:05.947Z,4.80
2023-11-30T04:00:33.079Z,4.83
2023-11-30T04:02:59.609Z,4.55
2023-11-30T04:05:26.150Z,4.50
2023-11-30T04:07:52.639Z,5.10
2023-11-30T04:10:19.320Z,4.22
2023-11-30T04:12:45.766Z,5.37
2023-11-30T04:15:12.400Z,4.60
2023-11-30T04:17:38.988Z,4.22
2023-11-30T04:20:06.329Z,4.43
2023-11-30T04:22:32.837Z,3.85
2023-11-30T04:24:59.338Z,4.33
2023-11-30T04:27:25.910Z,3.95
2023-11-30T04:29:52.459Z,5.28
2023-11-30T04:32:18.975Z,4.35
2023-11-30T04:34:45.493Z,3.90
2023-11-30T04:37:11.997Z,4.07
2023-11-30T04:39:38.954Z,4.35
2023-11-30T04:42:05.707Z,4.03
2023-11-30T04:44:32.350Z,5.07
2023-11-30T04:46:58.918Z,3.83
2023-11-30T04:49:25.416Z,4.60
2023-11-30T04:51:51.951Z,4.82
2023-11-30T04:54:18.542Z,4.38
2023-11-30T04:56:45.030Z,4.97
2023-11-30T04:59:11.511Z,4.70
2023-11-30T05:01:38.271Z,4.53
2023-11-30T05:04:05.230Z,4.63
2023-11-30T05:06:32.051Z,4.45
2023-11-30T05:08:58.641Z,4.70
2023-11-30T05:11:25.976Z,5.15
2023-11-30T05:13:52.636Z,4.33
2023-11-30T05:16:19.146Z,4.50
2023-11-30T05:18:45.666Z,4.13
2023-11-30T05:21:12.351Z,4.45
2023-11-30T05:23:38.887Z,4.20
2023-11-30T05:26:05.753Z,4.33
2023-11-30T05:28:33.541Z,5.40
2023-11-30T05:31:00.302Z,4.18
2023-11-30T05:33:28.932Z,4.90
2023-11-30T05:35:55.701Z,5.35
2023-11-30T05:38:22.384Z,5.30
2023-11-30T05:40:48.927Z,5.32
2023-11-30T05:43:16.355Z,5.28
2023-11-30T05:45:45.114Z,4.88
2023-11-30T05:48:11.805Z,4.18
2023-11-30T05:50:38.361Z,4.20
2023-11-30T05:53:06.327Z,4.93
2023-11-30T06:00:49.426Z,5.40
2023-11-30T06:03:16.113Z,4.40
2023-11-30T06:05:42.849Z,4.32
2023-11-30T06:08:10.322Z,4.45
2023-11-30T06:10:37.504Z,4.50
2023-11-30T06:13:04.330Z,4.28
2023-11-30T06:15:31.013Z,4.57
2023-11-30T06:17:57.641Z,5.22
2023-11-30T06:20:24.235Z,4.55
2023-11-30T06:22:50.762Z,4.80
2023-11-30T06:25:17.384Z,4.15
2023-11-30T06:27:43.945Z,4.80
2023-11-30T06:30:11.544Z,4.72
2023-11-30T06:32:38.152Z,4.78
2023-11-30T06:35:06.092Z,5.28
2023-11-30T06:37:32.700Z,4.68
2023-11-30T06:39:59.304Z,4.97
2023-11-30T06:42:25.835Z,4.57
2023-11-30T06:44:52.465Z,4.82
2023-11-30T06:47:19.054Z,4.80
2023-11-30T06:49:46.493Z,5.18
2023-11-30T06:52:13.112Z,4.80
2023-11-30T06:54:39.823Z,4.88
2023-11-30T06:57:06.454Z,4.57
2023-11-30T06:59:34.287Z,4.35
2023-11-30T07:02:01.056Z,4.70
2023-11-30T07:04:29.551Z,4.90
2023-11-30T07:06:56.447Z,4.82
2023-11-30T07:09:23.058Z,4.60
2023-11-30T07:11:49.598Z,4.30
2023-11-30T07:14:16.111Z,3.58
2023-11-30T07:16:42.656Z,4.37
2023-11-30T07:19:09.260Z,4.55
2023-11-30T07:21:35.839Z,3.85
2023-11-30T07:24:02.506Z,4.00
2023-11-30T07:26:29.086Z,4.10
2023-11-30T07:28:55.630Z,3.87
2023-11-30T07:31:23.011Z,4.60
2023-11-30T07:33:50.044Z,4.55
2023-11-30T07:36:16.838Z,3.75
2023-11-30T07:38:43.628Z,3.65
2023-11-30T07:41:10.253Z,4.33
2023-11-30T07:43:37.444Z,4.63
2023-11-30T07:46:04.260Z,4.47
2023-11-30T07:48:30.920Z,5.32
2023-11-30T07:50:57.541Z,5.82
2023-11-30T07:53:26.557Z,6.67
2023-11-30T07:55:57.758Z,7.50
2023-11-30T07:58:24.923Z,6.72
2023-11-30T08:00:52.136Z,7.82
2023-11-30T08:03:18.828Z,6.90
2023-11-30T08:05:45.915Z,6.77
2023-11-30T08:08:13.179Z,7.25
2023-11-30T08:10:40.368Z,6.60
2023-11-30T08:13:07.730Z,5.95
2023-11-30T08:15:34.530Z,6.38
2023-11-30T08:18:02.024Z,5.90
2023-11-30T08:20:28.839Z,5.45
2023-11-30T08:22:56.447Z,6.20
2023-11-30T08:25:23.106Z,4.97
2023-11-30T08:27:54.105Z,5.15
2023-11-30T08:30:21.716Z,5.53
2023-11-30T08:32:48.367Z,5.85
2023-11-30T08:35:14.930Z,6.10
2023-11-30T08:37:41.461Z,7.22
2023-11-30T08:40:08.903Z,6.85
2023-11-30T08:42:36.632Z,7.83
2023-11-30T08:45:04.093Z,7.65
2023-11-30T08:47:30.717Z,7.25
2023-11-30T08:49:57.340Z,7.32
2023-11-30T08:52:24.292Z,8.02
2023-11-30T08:54:52.496Z,12.47
2023-11-30T08:57:20.644Z,12.30
2023-11-30T08:59:47.578Z,12.75
2023-11-30T09:02:14.696Z,11.95
2023-11-30T09:04:41.802Z,11.82
2023-11-30T09:07:08.496Z,10.80
2023-11-30T09:09:35.175Z,10.25
2023-11-30T09:12:03.322Z,10.55
2023-11-30T09:14:31.939Z,9.65
2023-11-30T09:17:00.457Z,8.45
2023-11-30T09:19:27.119Z,8.87
2023-11-30T09:21:53.928Z,8.90
2023-11-30T09:24:23.036Z,9.00
2023-11-30T09:26:54.439Z,9.10
2023-11-30T09:29:21.163Z,10.63
2023-11-30T09:31:47.936Z,10.30
2023-11-30T09:34:14.630Z,11.10
2023-11-30T09:36:42.000Z,11.45
2023-11-30T09:39:26.747Z,9.95
2023-11-30T09:41:53.500Z,9.45
2023-11-30T09:44:20.705Z,9.87
2023-11-30T09:46:47.333Z,9.85
2023-11-30T09:49:13.933Z,9.40
2023-11-30T09:51:42.521Z,9.98
2023-11-30T09:54:09.404Z,10.02
2023-11-30T09:56:36.021Z,9.60
2023-11-30T09:59:02.546Z,10.35
2023-11-30T10:01:29.222Z,10.27
2023-11-30T10:03:56.287Z,9.50
2023-11-30T10:06:22.977Z,10.00
2023-11-30T10:08:49.705Z,10.57
2023-11-30T10:11:16.356Z,9.63
2023-11-30T10:13:44.192Z,10.52
2023-11-30T10:16:11.886Z,12.02
2023-11-30T10:18:38.660Z,13.60
2023-11-30T10:21:08.648Z,12.73
2023-11-30T10:23:35.565Z,12.70
2023-11-30T10:26:03.221Z,12.07
2023-11-30T10:28:30.175Z,11.60
2023-11-30T10:31:00.448Z,11.73
2023-11-30T10:33:28.844Z,9.53
2023-11-30T10:35:55.593Z,10.77
2023-11-30T10:38:34.899Z,9.90
2023-11-30T10:41:08.119Z,8.63
2023-11-30T10:43:37.618Z,8.07
2023-11-30T10:46:08.785Z,8.53
2023-11-30T10:48:39.689Z,9.15
2023-11-30T10:51:08.524Z,8.60
2023-11-30T10:54:24.685Z,8.32
2023-11-30T10:56:51.684Z,8.48
2023-11-30T10:59:18.162Z,7.90
2023-11-30T11:01:46.449Z,8.18
2023-11-30T11:04:16.260Z,8.02
2023-11-30T11:06:43.332Z,8.48
2023-11-30T11:09:16.495Z,9.77
2023-11-30T11:11:44.406Z,9.40
2023-11-30T11:14:34.023Z,7.40
2023-11-30T11:17:10.921Z,8.98
2023-11-30T11:19:44.915Z,8.43
2023-11-30T11:22:22.434Z,8.18
2023-11-30T11:24:49.752Z,8.17
2023-11-30T11:27:30.671Z,7.80
2023-11-30T11:29:59.106Z,7.45
2023-11-30T11:32:26.566Z,8.02
2023-11-30T11:34:54.036Z,7.78
2023-11-30T11:37:21.071Z,7.17
2023-11-30T11:39:49.588Z,8.10
2023-11-30T11:42:16.432Z,8.27
2023-11-30T11:44:43.030Z,7.47
2023-11-30T11:47:09.768Z,7.53
2023-11-30T11:49:36.350Z,8.17
2023-11-30T11:52:02.889Z,7.88
2023-11-30T11:54:29.920Z,7.82
2023-11-30T11:56:56.525Z,8.93
2023-11-30T11:59:24.929Z,8.75
2023-11-30T12:01:51.991Z,9.70
2023-11-30T12:04:33.193Z,8.43
2023-11-30T12:07:01.347Z,8.27
2023-11-30T12:09:27.927Z,7.93
2023-11-30T12:11:57.486Z,6.85
2023-11-30T12:14:26.008Z,7.53
2023-11-30T12:16:53.216Z,6.53
2023-11-30T12:19:21.115Z,7.03
2023-11-30T12:21:48.274Z,7.40
2023-11-30T12:24:15.813Z,6.20
2023-11-30T12:26:42.987Z,5.77
2023-11-30T12:29:11.185Z,6.25
2023-11-30T12:31:38.111Z,6.28
2023-11-30T12:34:05.512Z,5.38
2023-11-30T12:36:32.129Z,5.75
2023-11-30T12:38:58.796Z,5.60
2023-11-30T12:41:25.510Z,6.03
2023-11-30T12:43:52.193Z,5.45
2023-11-30T12:46:18.801Z,5.35
2023-11-30T12:48:45.476Z,5.13
2023-11-30T12:51:12.060Z,5.10
2023-11-30T12:53:39.537Z,5.13
2023-11-30T12:56:06.615Z,4.60
2023-11-30T12:58:33.255Z,6.00
2023-11-30T13:01:00.311Z,5.82
2023-11-30T13:03:27.388Z,5.40
2023-11-30T13:05:54.097Z,5.88
2023-11-30T13:08:21.812Z,6.20
2023-11-30T13:10:48.463Z,6.53
2023-11-30T13:13:14.996Z,6.57
2023-11-30T13:15:43.002Z,6.77
2023-11-30T13:18:09.597Z,6.13
2023-11-30T13:20:36.438Z,6.05
2023-11-30T13:23:02.979Z,6.55
2023-11-30T13:25:29.558Z,6.05
2023-11-30T13:27:56.119Z,7.30
2023-11-30T13:30:22.777Z,6.55
2023-11-30T13:32:49.413Z,6.97
2023-11-30T13:35:16.160Z,6.60
2023-11-30T13:37:43.345Z,7.13
2023-11-30T13:40:11.209Z,6.90
2023-11-30T13:42:38.085Z,7.55
2023-11-30T13:45:06.489Z,7.43
2023-11-30T13:47:33.344Z,6.63
2023-11-30T13:49:59.870Z,6.82
2023-11-30T13:52:26.473Z,7.40
2023-11-30T13:54:53.098Z,6.95
2023-11-30T13:57:19.722Z,7.15
2023-11-30T13:59:46.285Z,7.03
2023-11-30T14:02:12.945Z,7.38
2023-11-30T14:04:39.733Z,7.83
2023-11-30T14:07:06.457Z,7.05
2023-11-30T14:09:33.142Z,7.55
2023-11-30T14:11:59.879Z,6.50
2023-11-30T14:14:27.490Z,7.35
2023-11-30T14:16:54.541Z,7.50
2023-11-30T14:19:21.375Z,7.80
2023-11-30T14:21:48.047Z,8.88
2023-11-30T14:24:15.439Z,9.95
2023-11-30T14:26:42.176Z,9.63
2023-11-30T14:29:08.849Z,9.73
2023-11-30T14:31:35.384Z,10.30
2023-11-30T14:34:02.028Z,9.00
2023-11-30T14:36:30.695Z,8.70
2023-11-30T14:38:58.810Z,8.80
2023-11-30T14:41:25.878Z,8.97
2023-11-30T14:43:52.627Z,9.73
2023-11-30T14:46:19.308Z,9.20
2023-11-30T14:48:45.891Z,9.45
2023-11-30T14:51:14.451Z,10.60
2023-11-30T14:53:41.263Z,11.07
2023-11-30T14:56:09.030Z,10.48
2023-11-30T14:58:35.505Z,11.50
2023-11-30T15:01:02.198Z,10.60
2023-11-30T15:03:29.090Z,14.82
2023-11-30T15:05:55.734Z,11.87
2023-11-30T15:08:22.260Z,12.85
2023-11-30T15:10:49.707Z,12.25
2023-11-30T15:13:16.506Z,15.00
2023-11-30T15:15:43.437Z,17.05
2023-11-30T15:18:09.986Z,19.77
2023-11-30T15:20:36.804Z,20.23
2023-11-30T15:23:03.358Z,20.95
2023-11-30T15:25:29.910Z,22.20
2023-11-30T15:27:56.536Z,20.13
2023-11-30T15:30:23.181Z,17.43
2023-11-30T15:32:49.843Z,14.90
2023-11-30T15:35:16.875Z,14.32
2023-11-30T15:37:49.227Z,13.70
2023-11-30T15:40:17.765Z,11.90
2023-11-30T15:42:47.852Z,11.40
2023-11-30T15:45:17.748Z,11.88
2023-11-30T15:47:44.725Z,11.90
2023-11-30T15:50:11.987Z,10.70
2023-11-30T15:52:38.601Z,10.65
2023-11-30T15:55:05.748Z,11.07
2023-11-30T15:57:32.432Z,10.70
2023-11-30T15:59:59.138Z,11.02
2023-11-30T16:02:25.790Z,9.68
2023-11-30T16:04:52.377Z,9.57
2023-11-30T16:07:18.923Z,9.70
2023-11-30T16:09:45.605Z,9.07
2023-11-30T16:12:12.247Z,8.95
2023-11-30T16:14:38.790Z,9.82
2023-11-30T16:17:05.564Z,9.02
2023-11-30T16:19:34.489Z,8.20
2023-11-30T16:22:01.100Z,8.90
2023-11-30T16:24:27.787Z,8.50
2023-11-30T16:26:55.378Z,8.57
2023-11-30T16:29:22.535Z,8.63
2023-11-30T16:31:50.329Z,10.77
2023-11-30T16:34:19.860Z,11.32
2023-11-30T16:36:48.605Z,11.98
2023-11-30T16:39:15.899Z,13.70
2023-11-30T16:41:43.342Z,12.15
2023-11-30T16:44:09.991Z,12.47
2023-11-30T16:46:37.276Z,12.70
2023-11-30T16:49:04.294Z,13.02
2023-11-30T16:51:30.930Z,13.48
2023-11-30T16:53:57.684Z,15.32
2023-11-30T16:56:25.400Z,16.30
2023-11-30T16:58:55.266Z,16.23
2023-11-30T17:01:22.527Z,14.77
2023-11-30T17:03:49.689Z,13.77
2023-11-30T17:06:16.457Z,15.35
2023-11-30T17:08:43.142Z,14.37
2023-11-30T17:11:09.849Z,15.35
2023-11-30T17:13:36.365Z,12.98
2023-11-30T17:16:05.487Z,14.15
2023-11-30T17:18:33.018Z,12.95
2023-11-30T17:21:00.219Z,12.30
2023-11-30T17:23:27.585Z,12.30
2023-11-30T17:25:54.580Z,9.57
2023-11-30T17:28:21.114Z,9.43
2023-11-30T17:30:47.683Z,9.70
2023-11-30T17:33:14.369Z,8.60
2023-11-30T17:35:41.826Z,9.48
2023-11-30T17:38:08.433Z,9.50
2023-11-30T17:40:35.051Z,10.07
2023-11-30T17:43:01.738Z,10.40
2023-11-30T17:45:28.431Z,9.87
2023-11-30T17:47:56.731Z,8.98
2023-11-30T17:50:24.379Z,9.27
2023-11-30T17:52:51.107Z,9.10
2023-11-30T17:55:18.236Z,10.10
2023-11-30T17:57:44.946Z,10.33
2023-11-30T18:00:12.095Z,10.40
2023-11-30T18:02:38.688Z,12.15
2023-11-30T18:05:05.671Z,12.30
2023-11-30T18:07:32.172Z,12.77
2023-11-30T18:09:58.813Z,13.57
2023-11-30T18:12:25.711Z,12.98
2023-11-30T18:14:52.452Z,13.15
2023-11-30T18:17:19.078Z,14.27
2023-11-30T18:19:45.600Z,14.70
2023-11-30T18:22:12.214Z,18.03
2023-11-30T18:24:38.788Z,16.00
2023-11-30T18:27:05.544Z,16.00
2023-11-30T18:29:32.209Z,19.25
2023-11-30T18:31:59.009Z,18.17
2023-11-30T18:34:25.779Z,15.93
2023-11-30T18:36:53.701Z,15.50
2023-11-30T18:39:20.405Z,14.98
2023-11-30T18:41:47.106Z,15.27
2023-11-30T18:44:13.752Z,13.80
2023-11-30T18:46:40.837Z,13.67
2023-11-30T18:49:07.960Z,13.50
2023-11-30T18:51:36.668Z,13.05
2023-11-30T18:54:03.575Z,11.25
2023-11-30T18:56:30.444Z,12.30
2023-11-30T18:58:57.785Z,13.10
2023-11-30T19:01:25.101Z,13.43
2023-11-30T19:03:52.157Z,13.57
2023-11-30T19:06:20.218Z,13.68
2023-11-30T19:08:48.301Z,13.43
2023-11-30T19:11:16.903Z,13.10
2023-11-30T19:13:44.247Z,13.07
2023-11-30T19:16:23.838Z,12.63
2023-11-30T19:18:51.435Z,12.88
2023-11-30T19:21:18.427Z,13.15
2023-11-30T19:23:48.188Z,13.13
2023-11-30T19:26:16.220Z,11.90
2023-11-30T19:28:42.848Z,12.15
2023-11-30T19:31:09.547Z,12.32
2023-11-30T19:33:36.252Z,11.40
2023-11-30T19:36:02.906Z,10.73
2023-11-30T19:38:29.553Z,11.43
2023-11-30T19:40:57.023Z,12.20
2023-11-30T19:43:26.555Z,13.95
2023-11-30T19:45:55.359Z,12.93
2023-11-30T19:48:22.599Z,16.40
2023-11-30T19:50:49.266Z,15.20
2023-11-30T19:53:16.412Z,13.70
2023-11-30T19:55:45.900Z,12.20
2023-11-30T19:58:12.406Z,11.95
2023-11-30T20:00:41.169Z,11.77
2023-11-30T20:03:08.516Z,11.57
2023-11-30T20:05:35.237Z,10.95
2023-11-30T20:08:01.845Z,10.27
2023-11-30T20:10:28.442Z,10.07
2023-11-30T20:12:55.620Z,10.90
2023-11-30T20:15:22.317Z,10.85
2023-11-30T20:17:49.766Z,10.95
2023-11-30T20:20:16.856Z,9.90
2023-11-30T20:22:43.572Z,13.38
2023-11-30T20:25:10.481Z,13.30
2023-11-30T20:27:37.069Z,14.05
2023-11-30T20:30:03.998Z,14.13
2023-11-30T20:32:30.588Z,15.63
2023-11-30T20:34:57.287Z,14.88
2023-11-30T20:37:25.960Z,14.73
2023-11-30T20:39:52.637Z,12.55
2023-11-30T20:42:19.316Z,11.82
2023-11-30T20:44:47.751Z,12.32
2023-11-30T20:47:14.466Z,10.82
2023-11-30T20:49:41.036Z,8.57
2023-11-30T20:52:07.630Z,7.90
2023-11-30T20:54:35.303Z,8.48
2023-11-30T20:57:03.196Z,7.20
2023-11-30T20:59:29.812Z,7.68
2023-11-30T21:01:56.476Z,6.87
2023-11-30T21:04:23.351Z,8.38
2023-11-30T21:06:50.021Z,7.25
2023-11-30T21:09:16.685Z,6.40
2023-11-30T21:11:43.302Z,7.28
2023-11-30T21:14:11.342Z,7.37
2023-11-30T21:16:38.332Z,7.10
2023-11-30T21:19:05.035Z,6.72
2023-11-30T21:21:32.078Z,6.63
2023-11-30T21:23:58.663Z,7.20
2023-11-30T21:26:25.488Z,6.53
2023-11-30T21:28:52.006Z,7.43
2023-11-30T21:31:18.741Z,7.63
2023-11-30T21:33:45.467Z,7.85
2023-11-30T21:36:14.892Z,9.07
2023-11-30T21:38:42.044Z,8.43
2023-11-30T21:41:08.644Z,9.95
2023-11-30T21:43:35.274Z,10.02
2023-11-30T21:46:01.963Z,8.88
2023-11-30T21:48:28.642Z,8.85
2023-11-30T21:50:55.446Z,10.70
2023-11-30T21:53:22.110Z,11.30
2023-11-30T21:55:49.359Z,10.85
2023-11-30T21:58:16.280Z,9.18
2023-11-30T22:00:44.703Z,9.30
2023-11-30T22:03:12.653Z,8.77
2023-11-30T22:05:40.336Z,9.70
2023-11-30T22:08:06.958Z,9.57
2023-11-30T22:10:33.473Z,10.98
2023-11-30T22:13:00.078Z,14.80
2023-11-30T22:15:26.806Z,15.40
2023-11-30T22:17:53.410Z,16.15
2023-11-30T22:20:22.276Z,16.90
2023-11-30T22:22:48.791Z,17.65
2023-11-30T22:25:15.432Z,19.73
2023-11-30T22:27:42.030Z,19.67
2023-11-30T22:30:10.490Z,18.85
2023-11-30T22:32:37.012Z,16.80
2023-11-30T22:35:04.825Z,15.43
2023-11-30T22:37:31.388Z,15.68
2023-11-30T22:39:57.958Z,12.63
2023-11-30T22:42:26.313Z,11.70
2023-11-30T22:44:53.097Z,10.85
2023-11-30T22:47:19.639Z,9.82
2023-11-30T22:49:46.412Z,8.77
2023-11-30T22:52:13.099Z,8.77
2023-11-30T22:54:40.174Z,8.48
2023-11-30T22:57:06.791Z,8.75
2023-11-30T22:59:34.612Z,8.05
2023-11-30T23:02:01.447Z,8.15
2023-11-30T23:04:29.257Z,7.57
2023-11-30T23:06:55.978Z,7.65
2023-11-30T23:09:22.545Z,7.18
2023-11-30T23:11:49.115Z,7.35
2023-11-30T23:14:15.834Z,6.85
2023-11-30T23:16:42.396Z,7.50
2023-11-30T23:19:08.951Z,6.95
2023-11-30T23:21:35.505Z,7.60
2023-11-30T23:24:02.736Z,8.48
2023-11-30T23:26:29.357Z,6.88
2023-11-30T23:28:55.960Z,6.90
2023-11-30T23:31:23.023Z,7.15
2023-11-30T23:33:49.668Z,6.13
2023-11-30T23:36:16.306Z,6.00
2023-11-30T23:38:43.064Z,6.63
2023-11-30T23:41:09.815Z,6.33
2023-11-30T23:43:36.438Z,6.55
2023-11-30T23:46:04.200Z,7.43
2023-11-30T23:48:30.877Z,6.68
2023-11-30T23:50:57.472Z,6.25
2023-11-30T23:53:23.969Z,6.43
2023-11-30T23:55:50.512Z,6.50
2023-11-30T23:58:17.757Z,6.75
